Chelsea, Iowa
Current Conditions -  °F | °C
As of 3:55 PM on Monday 22 Dec 2014 (Local Time) from KGGI Reporting Station
Haze Haze  
Wind Chill: 28°   Ceiling: 200
Heat Index: 37°   Visibility: 1.7mi
Dew Point: 36°   Wind: 15mph
Humidity: 96%   Direction: 100°E
Pressure: 29.5"   Gusts: NA
Location:  41.92°N, 92.39°W
Report Text: KGGI 222155Z AUTO 10013KT 1 3/4SM BR OVC002 03/02 A2950 RMK AO2 T00270021
Loading
Personal Weather Stations






























Interactive Weather Map New forecast layout! Learn more

10-Day Weather Forecast

Advertisements
Track Severe Weather on mobile